PWSweather.com
Personal Weather Stations
Station Observations
CRNINF
Briga AltaIT

Briga AltaIT

Lat: 44.1474858, Lon: 7.7359028

Elevation: 4542.8

Station Type: PCE-FWS20

Latest ConditionsUpdated 9:30:08 AM GMT+01:01 Monday, Aug 26, 2019
Currently Today's Max Today's Min Today's Average
Temperature 77.5°F25.3°C 77.5°F25.3°C 54.7°F12.6°C 59.7°F15.4°C
Dew Point 56.3°F13.5°C 56.3°F13.5°C 46.7°F8.2°C 49.8°F9.9°C
Winds Calm Calm 5.2 mph -8.4 kmh - - 1.6 mph 2.6 kmh
Wind Gusts 1.6 mph2.6 kmh 14.5 mph23.3 kmh - -
Humidity 48% 76% 48% 70%
Pressure 29.93 in1013.5 mb 29.93 in1013.5 mb 29.91 in1012.9 mb -
Hour Temp Dew Point Humidity Winds Wind Gusts Pressure Precip Precip Rate Daily Precip Total
09:30 AM 77.5°F25.3°C 56.3°F13.5°C 48% Calm Calm 1.6 mph2.6 kmh 29.93 in1013.5 mb 0.00 in0.0 mm 0.00 in0.0 mm 0.00 in0.0 mm
09:15 AM 69.4°F20.8°C 55.9°F13.3°C 62% Calm Calm 0.7 mph1.1 kmh 29.93 in1013.5 mb 0.00 in0.0 mm 0.00 in0.0 mm 0.00 in0.0 mm
09:00 AM 66.6°F19.2°C 53.6°F12.0°C 63% Calm Calm -- 29.93 in1013.5 mb 0.00 in0.0 mm 0.00 in0.0 mm 0.00 in0.0 mm
08:45 AM 63.3°F17.4°C 52.6°F11.4°C 68% Calm Calm -- 29.93 in1013.5 mb 0.00 in0.0 mm 0.00 in0.0 mm 0.00 in0.0 mm
08:30 AM 61.9°F16.6°C 51.2°F10.7°C 68% Calm Calm -- 29.93 in1013.5 mb 0.00 in0.0 mm 0.00 in0.0 mm 0.00 in0.0 mm
08:15 AM 60.6°F15.9°C 49.6°F9.8°C 67% Calm Calm -- 29.93 in1013.5 mb 0.00 in0.0 mm 0.00 in0.0 mm 0.00 in0.0 mm
08:00 AM 59.4°F15.2°C 48.8°F9.3°C 68% 0.2 mph NNW0.3 kmh NNW 3.8 mph6.1 kmh 29.93 in1013.5 mb 0.00 in0.0 mm 0.00 in0.0 mm 0.00 in0.0 mm
07:45 AM 58.3°F14.6°C 49.3°F9.6°C 72% 0.2 mph N0.3 kmh N 2.2 mph3.5 kmh 29.93 in1013.5 mb 0.00 in0.0 mm 0.00 in0.0 mm 0.00 in0.0 mm
07:30 AM 57.0°F13.9°C 49.2°F9.6°C 75% 0.1 mph NW0.2 kmh NW 3.1 mph5.0 kmh 29.93 in1013.5 mb 0.00 in0.0 mm 0.00 in0.0 mm 0.00 in0.0 mm
07:15 AM 55.6°F13.1°C 47.8°F8.8°C 75% Calm Calm 1.6 mph2.6 kmh 29.93 in1013.5 mb 0.00 in0.0 mm 0.00 in0.0 mm 0.00 in0.0 mm
07:00 AM 55.4°F13.0°C 47.6°F8.7°C 75% 0.1 mph NW0.2 kmh NW 1.6 mph2.6 kmh 29.92 in1013.2 mb 0.00 in0.0 mm 0.00 in0.0 mm 0.00 in0.0 mm
06:45 AM 54.9°F12.7°C 47.4°F8.6°C 76% 0.1 mph SE0.2 kmh SE 2.2 mph3.5 kmh 29.92 in1013.2 mb 0.00 in0.0 mm 0.00 in0.0 mm 0.00 in0.0 mm
06:30 AM 54.9°F12.7°C 47.4°F8.6°C 76% Calm Calm 1.6 mph2.6 kmh 29.92 in1013.2 mb 0.00 in0.0 mm 0.00 in0.0 mm 0.00 in0.0 mm
06:15 AM 54.7°F12.6°C 46.9°F8.3°C 75% Calm Calm 0.7 mph1.1 kmh 29.92 in1013.2 mb 0.00 in0.0 mm 0.00 in0.0 mm 0.00 in0.0 mm
06:00 AM 55.6°F13.1°C 46.7°F8.2°C 72% 0.1 mph NW0.2 kmh NW 1.6 mph2.6 kmh 29.92 in1013.2 mb 0.00 in0.0 mm 0.00 in0.0 mm 0.00 in0.0 mm
05:45 AM 57.0°F13.9°C 48.5°F9.2°C 73% 2.2 mph NW3.5 kmh NW 6.0 mph9.7 kmh 29.92 in1013.2 mb 0.00 in0.0 mm 0.00 in0.0 mm 0.00 in0.0 mm
05:30 AM 58.1°F14.5°C 47.6°F8.7°C 68% 2.6 mph WNW4.2 kmh WNW 7.6 mph12.2 kmh 29.92 in1013.2 mb 0.00 in0.0 mm 0.00 in0.0 mm 0.00 in0.0 mm
05:15 AM 57.9°F14.4°C 47.8°F8.8°C 69% 2.9 mph W4.7 kmh W 6.0 mph9.7 kmh 29.91 in1012.9 mb 0.00 in0.0 mm 0.00 in0.0 mm 0.00 in0.0 mm
05:00 AM 57.4°F14.1°C 48.8°F9.3°C 73% 2.6 mph NW4.2 kmh NW 5.4 mph8.7 kmh 29.91 in1012.9 mb 0.00 in0.0 mm 0.00 in0.0 mm 0.00 in0.0 mm
04:45 AM 58.3°F14.6°C 48.9°F9.4°C 71% 2.6 mph NW4.2 kmh NW 5.4 mph8.7 kmh 29.92 in1013.2 mb 0.00 in0.0 mm 0.00 in0.0 mm 0.00 in0.0 mm
04:30 AM 58.5°F14.7°C 49.1°F9.5°C 71% 2.9 mph WNW4.7 kmh WNW 6.9 mph11.1 kmh 29.91 in1012.9 mb 0.00 in0.0 mm 0.00 in0.0 mm 0.00 in0.0 mm
04:15 AM 58.5°F14.7°C 49.5°F9.7°C 72% 2.4 mph NW3.9 kmh NW 9.2 mph14.8 kmh 29.92 in1013.2 mb 0.00 in0.0 mm 0.00 in0.0 mm 0.00 in0.0 mm
04:00 AM 58.6°F14.8°C 50.0°F10.0°C 73% 2.9 mph NW4.7 kmh NW 6.0 mph9.7 kmh 29.92 in1013.2 mb 0.00 in0.0 mm 0.00 in0.0 mm 0.00 in0.0 mm
03:45 AM 60.3°F15.7°C 50.1°F10.1°C 69% 3.9 mph WNW6.3 kmh WNW 13.6 mph21.9 kmh 29.92 in1013.2 mb 0.00 in0.0 mm 0.00 in0.0 mm 0.00 in0.0 mm
03:30 AM 60.3°F15.7°C 50.5°F10.3°C 70% 5.2 mph NW8.4 kmh NW 11.4 mph18.3 kmh 29.92 in1013.2 mb 0.00 in0.0 mm 0.00 in0.0 mm 0.00 in0.0 mm
03:15 AM 60.1°F15.6°C 49.9°F9.9°C 69% 2.7 mph WNW4.3 kmh WNW 9.2 mph14.8 kmh 29.92 in1013.2 mb 0.00 in0.0 mm 0.00 in0.0 mm 0.00 in0.0 mm
03:00 AM 60.4°F15.8°C 50.2°F10.1°C 69% 2.8 mph WNW4.5 kmh WNW 6.0 mph9.7 kmh 29.93 in1013.5 mb 0.00 in0.0 mm 0.00 in0.0 mm 0.00 in0.0 mm
02:45 AM 61.0°F16.1°C 50.4°F10.2°C 68% 3.6 mph W5.8 kmh W 8.3 mph13.4 kmh 29.93 in1013.5 mb 0.00 in0.0 mm 0.00 in0.0 mm 0.00 in0.0 mm
02:30 AM 61.0°F16.1°C 50.8°F10.4°C 69% 4.2 mph WNW6.8 kmh WNW 14.5 mph23.3 kmh 29.93 in1013.5 mb 0.00 in0.0 mm 0.00 in0.0 mm 0.00 in0.0 mm
01:15 AM 59.7°F15.4°C 50.7°F10.4°C 72% 3.1 mph WNW5.0 kmh WNW 7.6 mph12.2 kmh 29.93 in1013.5 mb 0.00 in0.0 mm 0.00 in0.0 mm 0.00 in0.0 mm